Portada
METAR-TAF:

METAR-TAF

Aeropuertos :

Valencia, España

Aeropuerto de Valencia

latitud: 39-30N, longitud: 000-28W, altitud: 69 m

Observación

El informe se hizo hace 12 minutos, a las 19:00 UTC
Viento 2 kt con dirección variable
Temperatura 11°C
Humedad 66%
Presión 1020 hPa
Visibilidad 10 km o más
sin nubes por debajo de 1500 m y sin presencia de cumulonimbus.

METAR: LEVC 211900Z VRB02KT CAVOK 11/05 Q1020 NOSIG

Hora: 20:12 (19:12 UTC)

Pronóstico

El informe se hizo hace 2 horas y 12 minutos, a las 17:00 UTC
Pronóstico válido del 21 a las 18 UTC al 22 a las 18 UTC
Viento 3 kt con dirección variable
Visibilidad 10 km o más
Escasas nubes a una altura de 3000 ft
Temporalmente
del 22 a las 13 UTC al 22 a las 17 UTC
Viento 8 kt del este-sureste

TAF: LEVC 211700Z 2118/2218 VRB03KT 9999 FEW030 TX21/2212Z TN03/2206Z TEMPO 2213/2217 12008KT

Observaciones y pronósticos meteorológicos de más de 4000 aeropuertos (mensajes METAR y TAF).

Los puntos amarillos y rojos representan las estaciones disponibles.

Ponga el ratón en el punto deseado para ver el nombre de la estación.

Haga clic para ver las observaciones y los pronósticos meteorológicos.

Para cambiar el mapa : haga clic en los botones verdes con una cruz de color negro para hacer un zoom, en el botón verde con un guión para alejar o en las flechas verdes para mapas adyacentes.


METAR-TAF: